Terminal Aerodrome Forecast
Issued by NWS

Home | Current Version | Previous Version | Graphics & Text | Print | Product List | Glossary On
Versions: 1 2 3 4 5 6 7 8 9 10 11 12 13 14 15
724
FTUS43 KICT 221720
TAFCNU
TAF
KCNU 221720Z 2218/2318 21014KT P6SM FEW250
     FM222300 20009KT P6SM SCT250
     FM230100 19005KT P6SM FEW250
     FM231500 13008KT P6SM BKN030
     FM231600 14009KT P6SM BKN130=

USA.gov is the U.S. government's official web portal to all federal, state and local government web resources and services.